createdAt,value
2019-04-26T00:00:53.662Z,1.40
2019-04-26T00:04:58.261Z,0.97
2019-04-26T00:09:16.237Z,1.30
2019-04-26T00:13:41.251Z,1.57
2019-04-26T00:17:48.098Z,1.27
2019-04-26T00:21:57.817Z,1.40
2019-04-26T00:26:01.497Z,1.17
2019-04-26T00:30:12.107Z,1.60
2019-04-26T00:34:25.231Z,1.50
2019-04-26T00:38:28.972Z,1.50
2019-04-26T00:42:35.795Z,1.30
2019-04-26T00:46:42.010Z,1.50
2019-04-26T00:50:48.600Z,1.70
2019-04-26T00:54:52.252Z,2.03
2019-04-26T00:58:56.190Z,2.00
2019-04-26T01:02:59.825Z,2.13
2019-04-26T01:07:09.560Z,2.03
2019-04-26T01:11:15.306Z,1.73
2019-04-26T01:15:21.627Z,1.50
2019-04-26T01:19:26.542Z,1.43
2019-04-26T01:23:38.823Z,1.63
2019-04-26T01:27:45.361Z,1.40
2019-04-26T01:32:01.997Z,1.20
2019-04-26T01:36:12.895Z,1.30
2019-04-26T01:40:15.830Z,1.23
2019-04-26T01:44:39.393Z,1.20
2019-04-26T01:49:01.831Z,1.30
2019-04-26T01:53:06.135Z,1.20
2019-04-26T01:57:12.811Z,1.37
2019-04-26T02:01:32.313Z,1.40
2019-04-26T02:05:35.834Z,1.43
2019-04-26T02:09:41.090Z,1.20
2019-04-26T02:13:45.042Z,1.20
2019-04-26T02:17:54.219Z,1.30
2019-04-26T02:22:05.472Z,1.30
2019-04-26T02:26:26.993Z,1.23
2019-04-26T02:30:32.263Z,1.23
2019-04-26T02:34:38.023Z,1.03
2019-04-26T02:38:41.780Z,1.10
2019-04-26T02:42:46.029Z,1.23
2019-04-26T02:47:28.938Z,1.30
2019-04-26T02:51:41.325Z,1.57
2019-04-26T02:56:20.866Z,1.27
2019-04-26T03:00:24.408Z,4.20
2019-04-26T03:04:30.199Z,1.43
2019-04-26T03:08:37.949Z,57.00
2019-04-26T03:12:46.259Z,3.67
2019-04-26T03:17:03.475Z,1.73
2019-04-26T03:21:18.295Z,1.57
2019-04-26T03:25:32.668Z,1.63
2019-04-26T03:29:47.682Z,1.63
2019-04-26T03:34:43.346Z,1.50
2019-04-26T03:39:13.995Z,1.40
2019-04-26T03:43:35.011Z,2.20
2019-04-26T03:48:11.558Z,2.10
2019-04-26T03:52:54.536Z,2.57
2019-04-26T03:57:26.278Z,3.00
2019-04-26T04:01:45.013Z,2.77
2019-04-26T04:05:53.244Z,3.20
2019-04-26T04:10:04.642Z,3.40
2019-04-26T04:14:17.768Z,3.13
2019-04-26T04:18:25.273Z,2.63
2019-04-26T04:22:33.883Z,3.07
2019-04-26T04:27:20.892Z,3.50
2019-04-26T04:31:33.901Z,4.23
2019-04-26T04:35:47.374Z,4.23
2019-04-26T04:40:31.131Z,3.93
2019-04-26T04:45:25.921Z,4.30
2019-04-26T04:50:24.329Z,5.30
2019-04-26T04:55:03.299Z,4.33
2019-04-26T04:58:55.778Z,3.80
2019-04-26T05:03:27.969Z,4.00
2019-04-26T05:08:06.740Z,4.07
2019-04-26T05:12:17.929Z,4.50
2019-04-26T05:16:52.613Z,4.20
2019-04-26T05:21:36.900Z,4.70
2019-04-26T05:26:58.634Z,5.10
2019-04-26T05:31:29.915Z,5.63
2019-04-26T05:36:15.605Z,5.40
2019-04-26T05:40:59.351Z,5.73
2019-04-26T05:45:54.610Z,5.90
2019-04-26T05:50:35.964Z,6.90
2019-04-26T05:55:05.470Z,7.37
2019-04-26T05:59:17.233Z,8.47
2019-04-26T06:04:15.785Z,8.37
2019-04-26T06:08:41.761Z,9.40
2019-04-26T06:13:46.600Z,10.20
2019-04-26T06:18:15.132Z,7.13
2019-04-26T06:22:42.356Z,13.23
2019-04-26T06:27:44.544Z,9.80
2019-04-26T06:31:59.026Z,9.53
2019-04-26T06:36:09.185Z,11.13
2019-04-26T06:40:41.628Z,7.17
2019-04-26T06:45:04.707Z,5.20
2019-04-26T06:49:49.149Z,5.40
2019-04-26T06:54:16.111Z,6.03
2019-04-26T06:59:10.422Z,5.50
2019-04-26T07:03:51.033Z,6.13
2019-04-26T07:08:07.405Z,10.03
2019-04-26T07:12:35.583Z,6.60
2019-04-26T07:16:51.569Z,6.20
2019-04-26T07:21:37.774Z,5.60
2019-04-26T07:26:33.307Z,6.17
2019-04-26T07:31:02.549Z,7.83
2019-04-26T07:35:39.199Z,6.40
2019-04-26T07:40:43.830Z,6.40
2019-04-26T07:45:25.976Z,5.70
2019-04-26T07:50:09.394Z,5.83
2019-04-26T07:55:18.878Z,3.67
2019-04-26T08:00:00.172Z,3.80
2019-04-26T08:04:09.376Z,3.07
2019-04-26T08:08:17.126Z,2.90
2019-04-26T08:12:23.794Z,2.87
2019-04-26T08:16:48.304Z,2.90
2019-04-26T08:21:02.419Z,3.10
2019-04-26T08:25:08.604Z,2.60
2019-04-26T08:29:17.413Z,2.97
2019-04-26T08:33:27.256Z,3.10
2019-04-26T08:37:52.544Z,3.27
2019-04-26T08:41:57.388Z,2.83
2019-04-26T08:46:36.276Z,3.10
2019-04-26T08:50:45.952Z,2.97
2019-04-26T08:54:57.385Z,2.30
2019-04-26T08:59:07.229Z,2.00
2019-04-26T09:03:35.932Z,2.10
2019-04-26T09:07:43.538Z,2.40
2019-04-26T09:11:59.099Z,2.80
2019-04-26T09:16:11.730Z,2.23
2019-04-26T09:20:27.829Z,2.90
2019-04-26T09:24:32.185Z,2.20
2019-04-26T09:29:03.953Z,2.70
2019-04-26T09:33:22.612Z,2.23
2019-04-26T09:37:25.681Z,2.70
2019-04-26T09:41:32.184Z,2.67
2019-04-26T09:45:54.029Z,3.20
2019-04-26T09:50:33.889Z,3.40
2019-04-26T09:54:37.706Z,2.90
2019-04-26T09:58:42.682Z,3.47
2019-04-26T10:02:46.625Z,2.47
2019-04-26T10:06:50.257Z,2.47
2019-04-26T10:10:56.590Z,2.20
2019-04-26T10:15:31.806Z,1.80
2019-04-26T10:19:47.190Z,2.03
2019-04-26T10:23:50.729Z,1.90
2019-04-26T10:28:03.723Z,2.27
2019-04-26T10:32:10.308Z,7.97
2019-04-26T10:36:13.866Z,2.30
2019-04-26T10:40:17.495Z,1.70
2019-04-26T10:44:21.032Z,1.80
2019-04-26T10:48:30.696Z,1.90
2019-04-26T10:52:59.299Z,2.40
2019-04-26T10:57:22.362Z,2.10
2019-04-26T11:01:26.176Z,2.23
2019-04-26T11:05:29.807Z,2.67
2019-04-26T11:09:34.847Z,2.50
2019-04-26T11:13:39.481Z,4.03
2019-04-26T11:17:46.032Z,3.50
2019-04-26T11:21:51.081Z,2.70
2019-04-26T11:26:01.633Z,3.23
2019-04-26T11:30:12.846Z,3.47
2019-04-26T11:34:13.917Z,3.20
2019-04-26T11:38:17.680Z,2.97
2019-04-26T11:42:21.341Z,2.40
2019-04-26T11:46:29.066Z,2.57
2019-04-26T11:50:30.372Z,3.10
2019-04-26T11:54:34.009Z,2.77
2019-04-26T11:58:37.638Z,3.20
2019-04-26T12:02:50.611Z,3.30
2019-04-26T12:07:18.534Z,3.10
2019-04-26T12:11:30.341Z,3.77
2019-04-26T12:15:30.381Z,2.90
2019-04-26T12:19:33.229Z,2.50
2019-04-26T12:23:37.039Z,2.00
2019-04-26T12:27:43.515Z,2.07
2019-04-26T12:31:50.506Z,2.70
2019-04-26T12:35:57.451Z,2.50
2019-04-26T12:40:01.271Z,3.30
2019-04-26T12:44:05.414Z,2.20
2019-04-26T12:48:12.457Z,3.83
2019-04-26T12:52:17.376Z,3.20
2019-04-26T12:56:21.703Z,2.50
2019-04-26T13:00:28.456Z,3.43
2019-04-26T13:04:36.329Z,2.83
2019-04-26T13:08:37.615Z,4.17
2019-04-26T13:13:02.491Z,3.50
2019-04-26T13:17:09.522Z,2.67
2019-04-26T13:21:16.187Z,2.53
2019-04-26T13:25:26.303Z,3.90
2019-04-26T13:29:31.132Z,3.10
2019-04-26T13:33:33.242Z,3.10
2019-04-26T13:37:39.939Z,2.87
2019-04-26T13:41:56.264Z,2.67
2019-04-26T13:46:17.465Z,2.80
2019-04-26T13:50:40.122Z,2.73
2019-04-26T13:54:46.989Z,2.13
2019-04-26T13:58:54.235Z,2.77
2019-04-26T14:02:59.029Z,3.03
2019-04-26T14:07:05.589Z,6.10
2019-04-26T14:11:20.062Z,2.50
2019-04-26T14:15:23.507Z,2.93
2019-04-26T14:19:31.446Z,4.60
2019-04-26T14:23:57.959Z,4.43
2019-04-26T14:28:01.763Z,4.13
2019-04-26T14:32:05.537Z,4.70
2019-04-26T14:36:17.686Z,7.23
2019-04-26T14:40:30.669Z,8.03
2019-04-26T14:44:43.253Z,7.27
2019-04-26T14:48:47.665Z,7.70
2019-04-26T14:52:53.619Z,5.67
2019-04-26T14:56:59.865Z,6.27
2019-04-26T15:01:05.192Z,5.93
2019-04-26T15:05:31.107Z,7.60
2019-04-26T15:09:36.361Z,7.80
2019-04-26T15:13:40.564Z,7.40
2019-04-26T15:17:43.853Z,7.10
2019-04-26T15:21:48.303Z,6.10
2019-04-26T15:25:58.384Z,6.70
2019-04-26T15:30:06.187Z,5.00
2019-04-26T15:34:19.262Z,5.97
2019-04-26T15:38:21.916Z,5.93
2019-04-26T15:42:44.568Z,5.57
2019-04-26T15:47:07.223Z,5.60
2019-04-26T15:51:10.559Z,4.17
2019-04-26T15:55:13.748Z,3.93
2019-04-26T15:59:18.372Z,3.90
2019-04-26T16:03:24.063Z,3.40
2019-04-26T16:07:29.066Z,2.70
2019-04-26T16:11:32.006Z,2.10
2019-04-26T16:15:35.061Z,2.33
2019-04-26T16:19:38.080Z,1.47
2019-04-26T16:23:47.105Z,1.70
2019-04-26T16:27:46.033Z,1.40
2019-04-26T16:32:06.998Z,1.27
2019-04-26T16:36:10.207Z,1.33
2019-04-26T16:40:14.007Z,1.50
2019-04-26T16:44:19.301Z,1.00
2019-04-26T16:48:25.578Z,1.13
2019-04-26T16:52:26.821Z,1.17
2019-04-26T16:56:29.861Z,1.60
2019-04-26T17:00:50.798Z,1.20
2019-04-26T17:04:40.972Z,1.10
2019-04-26T17:08:50.071Z,1.73
2019-04-26T17:12:50.732Z,1.70
2019-04-26T17:16:53.787Z,1.70
2019-04-26T17:20:56.829Z,2.10
2019-04-26T17:25:24.448Z,1.63
2019-04-26T17:29:26.871Z,1.60
2019-04-26T17:33:30.063Z,1.97
2019-04-26T17:37:33.315Z,1.87
2019-04-26T17:41:36.461Z,1.73
2019-04-26T17:45:40.804Z,1.60
2019-04-26T17:49:44.430Z,2.20
2019-04-26T17:53:47.960Z,1.97
2019-04-26T17:57:52.649Z,1.80
2019-04-26T18:02:00.859Z,1.90
2019-04-26T18:06:02.793Z,1.80
2019-04-26T18:10:12.237Z,3.30
2019-04-26T18:14:21.868Z,3.13
2019-04-26T18:18:55.822Z,3.70
2019-04-26T18:23:05.655Z,4.00
2019-04-26T18:27:10.109Z,3.70
2019-04-26T18:31:17.821Z,5.70
2019-04-26T18:35:23.313Z,6.00
2019-04-26T18:39:29.779Z,7.40
2019-04-26T18:43:33.770Z,8.53
2019-04-26T18:47:41.427Z,9.70
2019-04-26T18:51:48.308Z,10.20
2019-04-26T18:55:50.158Z,11.00
2019-04-26T18:59:53.648Z,13.17
2019-04-26T19:04:00.275Z,13.43
2019-04-26T19:08:07.554Z,12.50
2019-04-26T19:12:12.798Z,15.40
2019-04-26T19:16:46.483Z,14.53
2019-04-26T19:21:21.816Z,15.20
2019-04-26T19:25:29.855Z,13.37
2019-04-26T19:29:34.281Z,13.20
2019-04-26T19:33:40.288Z,12.40
2019-04-26T19:37:46.923Z,10.40
2019-04-26T19:41:57.626Z,10.67
2019-04-26T19:46:16.952Z,12.07
2019-04-26T19:50:32.216Z,11.90
2019-04-26T19:55:01.486Z,13.40
2019-04-26T19:59:05.770Z,14.23
2019-04-26T20:03:15.168Z,14.90
2019-04-26T20:07:14.345Z,17.70
2019-04-26T20:11:20.603Z,20.10
2019-04-26T20:15:26.630Z,20.30
2019-04-26T20:19:42.639Z,20.00
2019-04-26T20:23:47.600Z,25.60
2019-04-26T20:27:53.814Z,25.90
2019-04-26T20:32:24.146Z,24.87
2019-04-26T20:36:27.209Z,26.90
2019-04-26T20:40:33.311Z,28.13
2019-04-26T20:44:49.075Z,29.70
2019-04-26T20:48:42.626Z,29.93
2019-04-26T20:52:46.340Z,30.10
2019-04-26T20:56:52.497Z,31.57
2019-04-26T21:01:01.883Z,30.90
2019-04-26T21:05:06.112Z,32.90
2019-04-26T21:09:12.324Z,34.60
2019-04-26T21:13:15.546Z,33.57
2019-04-26T21:17:19.395Z,33.40
2019-04-26T21:21:27.566Z,30.40
2019-04-26T21:25:43.813Z,29.03
2019-04-26T21:30:08.325Z,27.67
2019-04-26T21:34:34.489Z,27.13
2019-04-26T21:38:59.403Z,28.87
2019-04-26T21:43:23.131Z,31.70
2019-04-26T21:47:31.823Z,29.20
2019-04-26T21:51:35.801Z,28.57
2019-04-26T21:55:39.579Z,29.70
2019-04-26T21:59:44.230Z,30.00
2019-04-26T22:03:54.491Z,28.13
2019-04-26T22:07:53.684Z,26.23
2019-04-26T22:11:57.407Z,26.87
2019-04-26T22:16:31.992Z,22.60
2019-04-26T22:20:29.926Z,22.40
2019-04-26T22:24:35.777Z,20.27
2019-04-26T22:28:41.397Z,20.10
2019-04-26T22:32:48.504Z,20.60
2019-04-26T22:36:53.752Z,21.43
2019-04-26T22:40:57.603Z,22.90
2019-04-26T22:45:10.703Z,23.60
2019-04-26T22:49:14.502Z,24.20
2019-04-26T22:53:21.499Z,26.83
2019-04-26T22:57:26.911Z,27.33
2019-04-26T23:01:33.007Z,28.30
2019-04-26T23:05:39.202Z,29.20
2019-04-26T23:09:45.778Z,29.70
2019-04-26T23:14:11.526Z,28.50
2019-04-26T23:18:33.496Z,29.43
2019-04-26T23:22:37.278Z,29.63
2019-04-26T23:26:41.635Z,30.63
2019-04-26T23:30:46.761Z,31.50
2019-04-26T23:34:50.594Z,31.20
2019-04-26T23:38:53.636Z,32.30
2019-04-26T23:42:56.707Z,32.33
2019-04-26T23:47:01.340Z,30.83
2019-04-26T23:51:08.573Z,32.37
2019-04-26T23:55:15.363Z,32.90
2019-04-26T23:59:21.841Z,32.97
